AQQ10 IFIS: Internet Flight Information System
logo dgac
Sábado 28 de Mayo del 2022

Metar

Buscar por aerodromo o helipuerto
Ingrese nombre de aeródromo, localidad o designador OACI:


METAR del 28-05-2022 a las 20:00 UTC
Para mayor información visite www.meteochile.cl
METAR SCFA 282000Z 20010KT 9999 FEW020 15/09 Q1014 NOSIG
Viento: dirección 200 grados, velocidad 10 nudos
Visibilidad: 10 km o más
Nubes: Escasa nubosidad a 2000 pies sobre el nivel del aeródromo
Temperatura: 15 °C
Rocío: 9 °C
Humedad_relativa: 67%
Presión: 1014 hPa
No se esperan cambios significativos en las próximas 2 horas
METAR del 28-05-2022 a las 20:00 UTC
Para mayor información visite www.meteochile.cl
METAR SCVD 282000Z 26006KT 180V350 9999 FEW048 SCT100 11/02 Q1021
Viento: dirección 260 grados, velocidad 6 nudos
Viento con dirección variable entre 180 y 350 grados
Visibilidad: 10 km o más
Nubes: Escasa nubosidad a 4800 pies sobre el nivel del aeródromo
Nubes: Nubosidad parcial a 10000 pies sobre el nivel del aeródromo
Temperatura: 11 °C
Rocío: 2 °C
Humedad_relativa: 54%
Presión: 1021 hPa
METAR del 28-05-2022 a las 19:00 UTC
Para mayor información visite www.meteochile.cl
METAR SCVD 281900Z 22005KT 160V260 9999 BKN050 11/02 Q1021
Viento: dirección 220 grados, velocidad 5 nudos
Viento con dirección variable entre 160 y 260 grados
Visibilidad: 10 km o más
Nubes: Nublado a 5000 pies sobre el nivel del aeródromo
Temperatura: 11 °C
Rocío: 2 °C
Humedad_relativa: 54%
Presión: 1021 hPa
METAR del 28-05-2022 a las 19:00 UTC
Para mayor información visite www.meteochile.cl
METAR SCGE 281900Z 20013KT CAVOK 10/02 Q1020
Viento: dirección 200 grados, velocidad 13 nudos
Visibilidad: 10 km o más,
    sin nubes bajo los 5.000 pies o bajo del MSA (Mínimo de Seguridad del Aeródromo),
    sin cumulonimbus, y sin fenómenos de tiempo significativo en el aeródromo o alrededores
Temperatura: 10 °C
Rocío: 2 °C
Humedad_relativa: 58%
Presión: 1020 hPa
METAR del 28-05-2022 a las 19:00 UTC
Para mayor información visite www.meteochile.cl
METAR SCFA 281900Z 20009KT 9999 FEW020 15/08 Q1014 NOSIG
Viento: dirección 200 grados, velocidad 9 nudos
Visibilidad: 10 km o más
Nubes: Escasa nubosidad a 2000 pies sobre el nivel del aeródromo
Temperatura: 15 °C
Rocío: 8 °C
Humedad_relativa: 63%
Presión: 1014 hPa
No se esperan cambios significativos en las próximas 2 horas
METAR del 28-05-2022 a las 19:00 UTC
Para mayor información visite www.meteochile.cl
METAR SCQP 281900Z 18010KT 9999 BKN040 09/02 Q1021
Viento: dirección 180 grados, velocidad 10 nudos
Visibilidad: 10 km o más
Nubes: Nublado a 4000 pies sobre el nivel del aeródromo
Temperatura: 9 °C
Rocío: 2 °C
Humedad_relativa: 62%
Presión: 1021 hPa
METAR del 28-05-2022 a las 19:00 UTC
Para mayor información visite www.meteochile.cl
METAR SCRD 281900Z VRB02KT CAVOK 11/06 Q1018
Viento: dirección variable, velocidad 2 nudos
Visibilidad: 10 km o más,
    sin nubes bajo los 5.000 pies o bajo del MSA (Mínimo de Seguridad del Aeródromo),
    sin cumulonimbus, y sin fenómenos de tiempo significativo en el aeródromo o alrededores
Temperatura: 11 °C
Rocío: 6 °C
Humedad_relativa: 71%
Presión: 1018 hPa
METAR del 28-05-2022 a las 19:00 UTC
Para mayor información visite www.meteochile.cl
METAR SCPQ 281900Z 15006KT 100V180 9999 -SHRA BKN020 07/04 Q1020
Viento: dirección 150 grados, velocidad 6 nudos
Viento con dirección variable entre 100 y 180 grados
Visibilidad: 10 km o más
Débil ChubascosLluvia
Nubes: Nublado a 2000 pies sobre el nivel del aeródromo
Temperatura: 7 °C
Rocío: 4 °C
Humedad_relativa: 81%
Presión: 1020 hPa
METAR del 28-05-2022 a las 19:00 UTC
Para mayor información visite www.meteochile.cl
METAR SCCY 281900Z VRB04KT 9999 FEW040 06/M01 Q1017
Viento: dirección variable, velocidad 4 nudos
Visibilidad: 10 km o más
Nubes: Escasa nubosidad a 4000 pies sobre el nivel del aeródromo
Temperatura: 6 °C
Rocío: -1 °C
Humedad_relativa: 61%
Presión: 1017 hPa
METAR del 28-05-2022 a las 19:00 UTC
Para mayor información visite www.meteochile.cl
METAR SCCF 281900Z 27017KT CAVOK 19/M11 Q1022
Viento: dirección 270 grados, velocidad 17 nudos
Visibilidad: 10 km o más,
    sin nubes bajo los 5.000 pies o bajo del MSA (Mínimo de Seguridad del Aeródromo),
    sin cumulonimbus, y sin fenómenos de tiempo significativo en el aeródromo o alrededores
Temperatura: 19 °C
Rocío: -11 °C
Humedad_relativa: 12%
Presión: 1022 hPa